Time;durP1;ratioP1;P1;durP2;ratioP2;P2;SDS_P1;SDS_P2;PMS_P1;PMS_P2;Temp;Humidity;BMP_temperature;BMP_pressure;BME280_temperature;BME280_humidity;BME280_pressure;Samples;Min_cycle;Max_cycle;Signal;HPM_P1;HPM_P2
2022/04/24 00:00:16;;;;;;;16.67;10.20;;;;;;;24.77;50.34;97646.69;1791704;80;25878;-88
2022/04/24 00:02:42;;;;;;;19.12;10.85;;;;;;;24.77;50.35;97649.48;1791837;80;25403;-89
2022/04/24 00:05:10;;;;;;;16.10;10.03;;;;;;;24.78;50.35;97656.05;1791711;80;27324;-89
2022/04/24 00:07:36;;;;;;;18.32;10.72;;;;;;;24.78;50.35;97648.28;1791380;80;25455;-89
2022/04/24 00:10:04;;;;;;;18.17;11.10;;;;;;;24.79;50.35;97639.44;1791700;80;25557;-89
2022/04/24 00:12:29;;;;;;;15.90;9.98;;;;;;;24.80;50.35;97636.01;1791626;80;25682;-89
2022/04/24 00:14:55;;;;;;;15.90;10.15;;;;;;;24.81;50.33;97632.77;1791676;80;25659;-89
2022/04/24 00:17:21;;;;;;;16.30;9.83;;;;;;;24.82;50.37;97626.56;1791744;80;27364;-89
2022/04/24 00:19:49;;;;;;;17.48;10.75;;;;;;;24.82;50.37;97619.56;1791519;80;25468;-89
2022/04/24 00:22:16;;;;;;;15.88;10.03;;;;;;;24.82;50.35;97622.36;1791610;80;25751;-89
2022/04/24 00:24:42;;;;;;;15.50;9.95;;;;;;;24.84;50.37;97622.70;1791368;80;25868;-89
2022/04/24 00:27:09;;;;;;;15.30;9.88;;;;;;;24.85;50.37;97618.69;1791760;80;25644;-89
2022/04/24 00:29:37;;;;;;;15.43;9.43;;;;;;;24.86;50.37;97616.66;1791354;80;27583;-90
2022/04/24 00:32:05;;;;;;;15.83;9.75;;;;;;;24.85;50.38;97612.29;1791158;80;25594;-89
2022/04/24 00:34:32;;;;;;;15.83;10.28;;;;;;;24.86;50.38;97605.45;1791584;80;25731;-89
2022/04/24 00:36:58;;;;;;;15.95;9.78;;;;;;;24.86;50.37;97604.84;1791593;80;25843;-89
2022/04/24 00:39:24;;;;;;;16.07;9.65;;;;;;;24.87;50.37;97604.25;1791817;80;25641;-89
2022/04/24 00:41:51;;;;;;;14.95;9.43;;;;;;;24.88;50.38;97600.23;1791708;80;27407;-89
2022/04/24 00:44:19;;;;;;;15.35;9.48;;;;;;;24.89;50.40;97601.80;1791537;80;25577;-89
2022/04/24 00:47:02;;;;;;;14.68;9.35;;;;;;;24.90;50.39;97598.56;1791323;80;25541;-90
2022/04/24 00:49:29;;;;;;;15.32;9.63;;;;;;;24.91;50.36;97595.16;1791563;80;25684;-89
2022/04/24 00:51:55;;;;;;;16.48;9.68;;;;;;;24.92;50.38;97584.12;1791901;80;25432;-89
2022/04/24 00:54:21;;;;;;;16.52;10.15;;;;;;;24.91;50.38;97579.75;1791546;80;28263;-89
2022/04/24 00:56:47;;;;;;;16.65;9.73;;;;;;;24.91;50.38;97576.34;1791498;80;25875;-89
2022/04/24 00:59:15;;;;;;;14.98;10.08;;;;;;;24.93;50.38;97576.67;1791579;80;25593;-89
2022/04/24 01:01:42;;;;;;;15.95;10.08;;;;;;;24.94;50.39;97573.27;1791521;80;25755;-89
2022/04/24 01:04:11;;;;;;;14.85;9.45;;;;;;;24.93;50.39;97574.50;1791742;80;25681;-89
2022/04/24 01:06:43;;;;;;;16.00;9.78;;;;;;;24.95;50.40;97577.64;1791550;80;27451;-89
2022/04/24 01:09:19;;;;;;;14.70;9.73;;;;;;;24.95;50.41;97579.04;1791621;80;25601;-89
2022/04/24 01:11:48;;;;;;;15.00;9.13;;;;;;;24.96;50.43;97578.44;1791441;80;25608;-89
2022/04/24 01:14:16;;;;;;;13.45;9.38;;;;;;;24.96;50.43;97572.23;1791621;80;26552;-89
2022/04/24 01:16:44;;;;;;;14.83;9.48;;;;;;;24.97;50.41;97578.00;1791308;80;25656;-89
2022/04/24 01:19:12;;;;;;;14.35;9.23;;;;;;;24.98;50.41;97578.80;1791292;80;27492;-89
2022/04/24 01:21:42;;;;;;;16.23;10.13;;;;;;;24.97;50.43;97572.39;1791570;80;25669;-89
2022/04/24 01:24:09;;;;;;;14.07;9.08;;;;;;;25.00;50.42;97570.72;1790497;80;25423;-89
2022/04/24 01:26:36;;;;;;;15.13;9.60;;;;;;;25.00;50.42;97574.32;1791541;80;26493;-89
2022/04/24 01:29:04;;;;;;;16.52;9.55;;;;;;;25.01;50.44;97574.48;1791544;80;25668;-89
2022/04/24 01:31:33;;;;;;;14.70;9.60;;;;;;;25.02;50.45;97573.88;1791722;80;27490;-89
2022/04/24 01:34:00;;;;;;;15.13;9.20;;;;;;;25.01;50.42;97570.28;1791052;80;25482;-90
2022/04/24 01:36:27;;;;;;;15.35;9.63;;;;;;;25.05;50.43;97563.20;1791625;80;25470;-89
2022/04/24 01:38:53;;;;;;;15.58;9.60;;;;;;;25.04;50.45;97563.03;1791600;80;25895;-89
2022/04/24 01:41:19;;;;;;;14.07;9.15;;;;;;;25.05;50.45;97561.80;1791622;80;25581;-89
2022/04/24 01:43:46;;;;;;;14.43;9.33;;;;;;;25.05;50.43;97564.00;1791744;80;27511;-89
2022/04/24 01:46:13;;;;;;;13.75;9.03;;;;;;;25.07;50.45;97556.52;1788993;80;25691;-89
2022/04/24 01:48:40;;;;;;;14.93;9.30;;;;;;;25.08;50.45;97557.31;1777729;80;25776;-89
2022/04/24 01:51:09;;;;;;;14.30;9.18;;;;;;;25.08;50.45;97555.31;1777636;80;26563;-89
2022/04/24 01:53:36;;;;;;;15.80;9.80;;;;;;;25.09;50.45;97552.67;1777931;80;25391;-89
2022/04/24 01:56:05;;;;;;;14.23;9.08;;;;;;;25.09;50.45;97546.27;1777546;80;27535;-89
2022/04/24 01:58:33;;;;;;;13.10;8.97;;;;;;;25.10;50.47;97551.44;1777853;80;25987;-89
2022/04/24 02:00:59;;;;;;;13.55;8.83;;;;;;;25.10;50.48;97538.82;1777636;80;25450;-89
2022/04/24 02:03:27;;;;;;;14.80;8.93;;;;;;;25.10;50.47;97534.62;1777647;80;25711;-89
2022/04/24 02:05:53;;;;;;;13.43;8.90;;;;;;;25.12;50.46;97530.77;1777767;80;25391;-89
2022/04/24 02:08:20;;;;;;;13.50;8.80;;;;;;;25.12;50.48;97527.17;1777750;80;27500;-89
2022/04/24 02:10:46;;;;;;;14.20;8.93;;;;;;;25.13;50.46;97518.95;1777624;80;25619;-89
2022/04/24 02:13:12;;;;;;;14.87;9.68;;;;;;;25.14;50.49;97516.31;1777794;80;25557;-89
2022/04/24 02:15:38;;;;;;;13.08;8.55;;;;;;;25.14;50.48;97514.91;1777689;80;25885;-90
2022/04/24 02:18:05;;;;;;;12.85;8.30;;;;;;;25.15;50.48;97523.48;1777708;80;25664;-90
2022/04/24 02:20:31;;;;;;;13.60;9.00;;;;;;;25.16;50.50;97518.84;1777869;80;27592;-90
2022/04/24 02:22:58;;;;;;;13.95;9.23;;;;;;;25.16;50.49;97523.05;1777666;80;25913;-90
2022/04/24 02:25:25;;;;;;;14.73;8.80;;;;;;;25.18;50.46;97526.81;1777558;80;25762;-89
2022/04/24 02:27:57;;;;;;;13.53;8.90;;;;;;;25.18;50.48;97524.80;1777590;80;26712;-89
2022/04/24 02:30:26;;;;;;;14.47;9.55;;;;;;;25.19;50.46;97521.39;1777689;80;25587;-90
2022/04/24 02:32:52;;;;;;;14.18;9.38;;;;;;;25.20;50.48;97522.96;1777796;80;27372;-89
2022/04/24 02:35:19;;;;;;;13.85;8.93;;;;;;;25.20;50.47;97520.16;1753399;80;25681;-89
2022/04/24 02:37:45;;;;;;;13.03;8.80;;;;;;;25.21;50.48;97527.33;1777390;80;25729;-89
2022/04/24 02:40:11;;;;;;;13.13;8.48;;;;;;;25.22;50.48;97526.73;1777695;80;26572;-89
2022/04/24 02:42:39;;;;;;;11.57;8.20;;;;;;;25.22;50.49;97518.31;1777696;80;25641;-89
2022/04/24 02:45:09;;;;;;;12.23;8.08;;;;;;;25.22;50.52;97512.11;1777580;80;27623;-89
2022/04/24 02:47:38;;;;;;;;;;;;;;;25.22;50.49;97507.91;1788066;80;25447;-89
2022/04/24 02:50:05;;;;;;;12.70;8.18;;;;;;;25.22;50.52;97509.30;1791175;80;25458;-89
2022/04/24 02:52:31;;;;;;;13.18;8.28;;;;;;;25.21;50.51;97497.89;1791523;80;25736;-89
2022/04/24 02:54:57;;;;;;;11.45;8.13;;;;;;;25.23;50.53;97496.05;1791482;80;25600;-89
2022/04/24 02:57:23;;;;;;;13.28;8.48;;;;;;;25.24;50.52;97496.25;1791623;80;27361;-89
2022/04/24 02:59:49;;;;;;;11.95;8.65;;;;;;;25.24;50.51;97490.00;1791397;80;25475;-89
2022/04/24 03:02:19;;;;;;;12.60;8.13;;;;;;;25.26;50.51;97488.16;1791236;80;25659;-89
2022/04/24 03:04:48;;;;;;;12.40;8.15;;;;;;;25.26;50.48;97492.36;1791777;80;25745;-89
2022/04/24 03:07:14;;;;;;;14.53;8.60;;;;;;;25.25;50.51;97477.58;1791575;80;25459;-89
2022/04/24 03:09:41;;;;;;;14.25;8.83;;;;;;;25.27;50.52;97491.16;1791808;80;28258;-89
2022/04/24 03:12:09;;;;;;;13.35;8.58;;;;;;;25.26;50.51;97484.75;1791273;80;25632;-89
2022/04/24 03:14:34;;;;;;;11.83;8.05;;;;;;;25.27;50.52;97481.34;1791723;80;25472;-89
2022/04/24 03:17:00;;;;;;;11.68;7.78;;;;;;;25.27;50.51;97482.11;1791671;80;25763;-90
2022/04/24 03:19:26;;;;;;;12.75;8.18;;;;;;;25.28;50.50;97480.11;1791852;80;25404;-89
2022/04/24 03:21:52;;;;;;;11.93;7.95;;;;;;;25.28;50.52;97485.11;1791649;80;26835;-89
2022/04/24 03:24:17;;;;;;;12.07;7.75;;;;;;;25.29;50.52;97483.87;1791415;80;25757;-90
2022/04/24 03:26:43;;;;;;;11.73;8.10;;;;;;;25.30;50.51;97479.05;1791795;80;25796;-90
2022/04/24 03:29:09;;;;;;;12.10;7.90;;;;;;;25.30;50.51;97479.05;1791698;80;26529;-90
2022/04/24 03:31:35;;;;;;;11.90;8.13;;;;;;;25.29;50.51;97481.06;1791726;80;25713;-90
2022/04/24 03:34:02;;;;;;;11.48;7.97;;;;;;;25.30;50.52;97487.47;1791682;80;27438;-89
2022/04/24 03:36:27;;;;;;;12.55;8.33;;;;;;;25.30;50.52;97491.67;1791330;80;25931;-89
2022/04/24 03:38:53;;;;;;;11.25;7.75;;;;;;;25.31;50.51;97497.45;1791655;80;25447;-90
2022/04/24 03:41:19;;;;;;;11.90;7.72;;;;;;;25.30;50.51;97488.23;1791803;80;25715;-89
2022/04/24 03:43:45;;;;;;;12.00;8.00;;;;;;;25.31;50.55;97488.42;1791799;80;25664;-90
2022/04/24 03:46:11;;;;;;;11.00;7.62;;;;;;;25.31;50.51;97483.42;1791607;80;27228;-90
2022/04/24 03:48:37;;;;;;;11.48;8.05;;;;;;;25.32;50.51;97483.59;1779255;80;25725;-89
2022/04/24 03:51:04;;;;;;;12.33;8.18;;;;;;;25.30;50.52;97483.27;1777785;80;25476;-89
2022/04/24 03:53:30;;;;;;;12.47;7.78;;;;;;;25.32;50.54;97480.78;1777468;80;25739;-89
2022/04/24 03:55:56;;;;;;;12.13;8.20;;;;;;;25.31;50.52;97484.83;1777977;80;25372;-89
2022/04/24 03:58:21;;;;;;;10.95;7.42;;;;;;;25.31;50.54;97484.83;1777741;80;27390;-89
2022/04/24 04:00:47;;;;;;;11.60;8.10;;;;;;;25.31;50.55;97488.42;1777734;80;25625;-89
2022/04/24 04:03:14;;;;;;;10.82;7.72;;;;;;;25.33;50.54;97488.59;1777872;80;25655;-89
2022/04/24 04:05:40;;;;;;;10.40;7.37;;;;;;;25.33;50.53;97483.78;1777794;80;26576;-89
2022/04/24 04:08:06;;;;;;;10.30;7.58;;;;;;;25.33;50.53;97487.19;1777972;80;25648;-89
2022/04/24 04:10:32;;;;;;;10.45;7.28;;;;;;;25.32;50.51;97492.00;1777983;80;27590;-89
2022/04/24 04:12:57;;;;;;;10.75;7.40;;;;;;;25.33;50.53;97497.80;1777812;80;25626;-89
2022/04/24 04:15:24;;;;;;;10.58;7.80;;;;;;;25.31;50.54;97491.23;1777832;80;25427;-89
2022/04/24 04:17:50;;;;;;;10.45;7.28;;;;;;;25.33;50.54;97492.19;1775706;80;25819;-89
2022/04/24 04:20:17;;;;;;;10.48;7.35;;;;;;;25.32;50.53;97490.59;1795610;79;25775;-90
2022/04/24 04:22:54;;;;;;;10.82;7.42;;;;;;;25.34;50.53;97492.95;1795879;79;27438;-90
2022/04/24 04:25:24;;;;;;;10.00;7.35;;;;;;;25.34;50.50;97491.55;1806819;79;25760;-90
2022/04/24 04:27:52;;;;;;;10.98;7.85;;;;;;;25.35;50.53;97497.33;1808392;79;32901;-92
2022/04/24 04:30:18;;;;;;;11.33;7.78;;;;;;;25.34;50.52;97499.36;1808463;79;26416;-93
2022/04/24 04:32:46;;;;;;;9.90;7.12;;;;;;;25.32;50.56;97493.41;1808609;79;25724;-93
2022/04/24 04:35:12;;;;;;;9.63;7.37;;;;;;;25.32;50.64;97493.41;1808271;79;28327;-91
2022/04/24 04:37:42;;;;;;;12.25;7.95;;;;;;;25.30;50.69;97488.87;1808590;79;25432;-92
2022/04/24 04:40:10;;;;;;;10.18;7.28;;;;;;;25.30;50.70;97487.47;1808622;79;25738;-89
2022/04/24 04:42:36;;;;;;;10.28;7.33;;;;;;;25.29;50.76;97491.48;1808179;79;25775;-91
2022/04/24 04:45:03;;;;;;;10.82;7.35;;;;;;;25.27;50.83;97491.16;1808651;79;25679;-90
2022/04/24 04:47:29;;;;;;;11.28;7.55;;;;;;;25.28;50.85;97496.92;1812087;78;27410;-92
2022/04/24 04:49:56;;;;;;;10.93;7.67;;;;;;;25.27;50.88;97492.56;1823086;78;25815;-89
2022/04/24 04:52:23;;;;;;;10.10;7.42;;;;;;;25.27;50.94;97478.54;1823287;78;25679;-89
2022/04/24 04:54:49;;;;;;;10.45;6.92;;;;;;;25.27;50.98;97479.31;1823065;78;25687;-90
2022/04/24 04:57:16;;;;;;;9.50;7.12;;;;;;;25.27;51.02;97475.10;1823119;78;25592;-90
2022/04/24 04:59:43;;;;;;;10.68;7.20;;;;;;;25.28;51.02;97475.30;1822808;78;27463;-90
2022/04/24 05:02:09;;;;;;;10.32;7.53;;;;;;;25.29;51.05;97478.27;1823186;78;25761;-91
2022/04/24 05:04:34;;;;;;;11.63;7.70;;;;;;;25.29;51.08;97480.27;1823142;78;25670;-92
2022/04/24 05:07:00;;;;;;;10.88;7.37;;;;;;;25.29;51.11;97476.06;1823226;78;25754;-93
2022/04/24 05:09:26;;;;;;;10.15;7.72;;;;;;;25.30;51.14;97487.47;1823177;78;25592;-91
2022/04/24 05:11:53;;;;;;;10.48;7.25;;;;;;;25.30;51.13;97492.44;1823188;78;28278;-92
2022/04/24 05:14:19;;;;;;;10.28;7.20;;;;;;;25.31;51.18;97494.03;1823026;78;25587;-92
2022/04/24 05:16:45;;;;;;;10.50;7.37;;;;;;;25.31;51.20;97485.63;1823261;78;25711;-91
2022/04/24 05:19:11;;;;;;;10.70;7.45;;;;;;;25.32;51.20;97483.59;1823338;78;25696;-91
2022/04/24 05:21:36;;;;;;;9.30;6.80;;;;;;;25.33;51.25;97488.59;1823261;78;25687;-91
2022/04/24 05:24:03;;;;;;;9.50;7.20;;;;;;;25.32;51.24;97480.78;1823041;78;28228;-91
2022/04/24 05:26:29;;;;;;;9.55;7.00;;;;;;;25.35;51.25;97481.91;1822819;78;25438;-91
2022/04/24 05:28:55;;;;;;;9.63;6.67;;;;;;;25.34;51.26;97474.12;1823202;78;25638;-92
2022/04/24 05:31:21;;;;;;;11.03;7.62;;;;;;;25.33;51.31;97475.37;1823219;78;25699;-91
2022/04/24 05:33:47;;;;;;;9.43;7.15;;;;;;;25.33;51.29;97471.77;1823345;78;25384;-89
2022/04/24 05:36:13;;;;;;;8.98;7.08;;;;;;;25.35;51.31;97474.89;1823257;78;27313;-89
2022/04/24 05:38:38;;;;;;;10.53;7.30;;;;;;;25.33;51.34;97471.16;1823153;78;25724;-89
2022/04/24 05:41:04;;;;;;;9.45;6.85;;;;;;;25.33;51.37;97468.36;1823109;78;25639;-91
2022/04/24 05:43:31;;;;;;;10.03;7.20;;;;;;;25.32;51.37;97463.96;1823250;78;25753;-90
2022/04/24 05:45:57;;;;;;;10.68;6.85;;;;;;;25.34;51.39;97467.72;1823267;78;25454;-91
2022/04/24 05:48:23;;;;;;;10.40;6.95;;;;;;;25.34;51.40;97464.31;1818899;78;28307;-90
2022/04/24 05:50:49;;;;;;;9.20;7.03;;;;;;;25.34;51.39;97462.91;1814773;78;25670;-90
2022/04/24 05:53:15;;;;;;;9.18;6.78;;;;;;;25.33;51.42;97460.55;1815107;79;25651;-90
2022/04/24 05:55:41;;;;;;;9.95;6.90;;;;;;;25.34;51.41;97464.92;1815182;79;25759;-90
2022/04/24 05:58:08;;;;;;;10.53;7.17;;;;;;;25.34;51.34;97461.52;1815197;79;25550;-90
2022/04/24 06:00:36;;;;;;;9.88;6.95;;;;;;;25.34;51.34;97457.91;1815020;79;27359;-90
2022/04/24 06:03:01;;;;;;;10.38;7.08;;;;;;;25.34;51.22;97459.31;1814585;78;25816;-92
2022/04/24 06:05:27;;;;;;;8.93;6.80;;;;;;;25.34;51.17;97452.30;1815164;79;25387;-91
2022/04/24 06:07:54;;;;;;;9.75;7.10;;;;;;;25.34;51.10;97452.30;1815260;79;25821;-91
2022/04/24 06:10:21;;;;;;;10.15;7.25;;;;;;;25.37;51.03;97452.81;1814750;79;25441;-90
2022/04/24 06:12:54;;;;;;;9.73;7.03;;;;;;;25.36;50.93;97449.22;1815024;79;27325;-91
2022/04/24 06:15:27;;;;;;;9.30;7.17;;;;;;;25.36;50.81;97447.81;1813858;79;25550;-91
2022/04/24 06:17:57;;;;;;;9.90;7.03;;;;;;;25.37;50.70;97450.81;1815153;79;25477;-91
2022/04/24 06:20:25;;;;;;;9.25;7.15;;;;;;;25.35;50.70;97449.05;1814770;79;25806;-92
2022/04/24 06:22:58;;;;;;;10.40;7.15;;;;;;;25.35;50.62;97456.06;1811827;79;25652;-92
2022/04/24 06:25:28;;;;;;;10.15;7.37;;;;;;;25.34;50.59;97449.50;1814829;79;27476;-92
2022/04/24 06:27:54;;;;;;;9.10;7.28;;;;;;;25.33;50.53;97440.32;1815131;79;25566;-92
2022/04/24 06:30:24;;;;;;;9.13;7.15;;;;;;;25.32;50.40;97448.54;1815062;79;25675;-91
2022/04/24 06:32:50;;;;;;;10.80;7.12;;;;;;;25.33;50.36;97443.13;1815255;79;26476;-92
2022/04/24 06:35:18;;;;;;;10.25;7.30;;;;;;;25.31;50.32;97442.17;1815026;78;25576;-91
2022/04/24 06:37:53;;;;;;;9.83;7.12;;;;;;;25.31;50.28;97442.77;1814970;79;27556;-93
2022/04/24 06:40:19;;;;;;;9.30;6.67;;;;;;;25.30;50.29;97440.58;1814897;79;25621;-92
2022/04/24 06:43:04;;;;;;;9.48;6.87;;;;;;;25.29;50.35;97441.81;1814901;79;25431;-92
2022/04/24 06:45:40;;;;;;;10.70;7.55;;;;;;;25.30;50.34;97441.98;1814664;79;26780;-92
2022/04/24 06:48:10;;;;;;;10.20;7.33;;;;;;;25.31;50.34;97435.77;1813390;78;25472;-93
2022/04/24 06:50:40;;;;;;;10.55;7.30;;;;;;;25.28;50.35;97433.84;1808653;79;27593;-92
2022/04/24 06:53:17;;;;;;;10.57;7.47;;;;;;;25.28;50.38;97432.45;1808793;79;25601;-93
2022/04/24 06:55:45;;;;;;;9.33;7.20;;;;;;;25.27;50.42;97430.88;1808300;79;25664;-92
2022/04/24 06:58:14;;;;;;;9.78;7.15;;;;;;;25.26;50.48;97430.69;1808588;79;25909;-92
2022/04/24 07:00:43;;;;;;;12.45;7.05;;;;;;;25.26;50.52;97423.68;1808346;79;25588;-92
2022/04/24 07:03:16;;;;;;;8.78;6.65;;;;;;;25.25;50.55;97420.11;1808804;79;28022;-92
2022/04/24 07:05:43;;;;;;;9.03;7.08;;;;;;;25.26;50.59;97426.48;1808169;79;25629;-92
2022/04/24 07:08:09;;;;;;;9.70;6.30;;;;;;;25.23;50.68;97414.16;1808613;79;25403;-92
2022/04/24 07:10:36;;;;;;;11.60;7.40;;;;;;;25.23;50.71;97415.55;1808666;79;25789;-91
2022/04/24 07:13:05;;;;;;;11.50;6.97;;;;;;;25.24;50.73;97408.70;1808725;79;25613;-92
2022/04/24 07:15:35;;;;;;;9.88;6.75;;;;;;;25.24;50.81;97409.34;1808769;79;27381;-92
2022/04/24 07:18:02;;;;;;;8.08;6.65;;;;;;;25.23;50.90;97403.55;1805254;79;25723;-93
2022/04/24 07:20:29;;;;;;;9.08;6.80;;;;;;;25.23;50.96;97401.54;1808599;79;25585;-92
2022/04/24 07:23:02;;;;;;;8.83;6.80;;;;;;;25.23;51.05;97393.73;1808556;79;26566;-92
2022/04/24 07:25:40;;;;;;;8.55;6.45;;;;;;;25.22;51.12;97390.16;1808332;79;25680;-91
2022/04/24 07:28:08;;;;;;;9.00;6.95;;;;;;;25.23;51.25;97384.72;1808007;79;27460;-93
2022/04/24 07:30:34;;;;;;;11.83;7.42;;;;;;;25.23;51.25;97386.12;1808431;79;25466;-92
2022/04/24 07:33:01;;;;;;;9.95;7.15;;;;;;;25.24;51.33;97386.28;1808884;79;25624;-92
2022/04/24 07:35:31;;;;;;;8.70;6.83;;;;;;;25.24;51.37;97384.11;1808645;79;25747;-91
2022/04/24 07:37:57;;;;;;;;;;;;;;;25.22;51.41;97386.56;1810664;79;25597;-92
2022/04/24 07:40:27;;;;;;;9.80;6.78;;;;;;;25.21;51.55;97394.81;1808610;79;28403;-92
2022/04/24 07:42:59;;;;;;;9.80;7.35;;;;;;;25.17;51.61;97395.70;1808629;79;30170;-92
2022/04/24 07:45:31;;;;;;;9.65;7.40;;;;;;;25.16;51.64;97396.91;1808608;79;25613;-92
2022/04/24 07:47:59;;;;;;;9.83;7.20;;;;;;;25.17;51.64;97396.30;1808419;78;25676;-91
2022/04/24 07:50:28;;;;;;;9.23;7.25;;;;;;;25.16;51.71;97396.91;1808721;79;25750;-92
2022/04/24 07:52:56;;;;;;;10.72;6.95;;;;;;;25.16;51.71;97398.31;1808588;79;28266;-92
2022/04/24 07:55:24;;;;;;;10.98;7.70;;;;;;;25.17;51.71;97396.30;1808480;79;25687;-92
2022/04/24 07:57:53;;;;;;;10.13;6.87;;;;;;;25.16;51.74;97389.91;1808576;79;25653;-91
2022/04/24 08:00:22;;;;;;;9.28;6.50;;;;;;;25.16;51.74;97385.70;1808681;79;26537;-91
2022/04/24 08:02:58;;;;;;;8.65;7.15;;;;;;;25.16;51.80;97395.51;1808117;79;25575;-91
2022/04/24 08:05:26;;;;;;;11.00;6.85;;;;;;;25.16;51.83;97387.73;1808536;79;28311;-90
2022/04/24 08:07:56;;;;;;;9.55;6.58;;;;;;;25.17;51.85;97390.70;1808566;79;25814;-91
2022/04/24 08:10:25;;;;;;;11.03;6.92;;;;;;;25.16;51.84;97398.31;1808266;79;25589;-90
2022/04/24 08:12:51;;;;;;;10.35;6.70;;;;;;;25.15;51.81;97398.16;1805240;79;25738;-91
2022/04/24 08:15:18;;;;;;;8.95;6.62;;;;;;;25.14;51.77;97395.19;1808651;79;25731;-91
2022/04/24 08:17:45;;;;;;;10.18;7.08;;;;;;;25.15;51.81;97392.55;1808617;79;27391;-92
2022/04/24 08:20:15;;;;;;;9.93;6.60;;;;;;;25.15;51.79;97386.94;1808598;79;25515;-92
2022/04/24 08:22:53;;;;;;;8.35;6.58;;;;;;;25.16;51.78;97393.34;1808959;79;25576;-92
2022/04/24 08:25:24;;;;;;;9.78;6.90;;;;;;;25.16;51.74;97389.91;1808704;79;25895;-91
2022/04/24 08:27:53;;;;;;;10.35;6.42;;;;;;;25.15;51.72;97383.34;1808718;79;25660;-92
2022/04/24 08:30:22;;;;;;;10.43;6.83;;;;;;;25.13;51.73;97385.19;1808713;79;27303;-90
2022/04/24 08:32:49;;;;;;;9.30;6.83;;;;;;;25.14;51.71;97387.38;1808558;79;25790;-93
2022/04/24 08:35:19;;;;;;;11.20;7.08;;;;;;;25.12;51.69;97379.42;1808493;79;25498;-92
2022/04/24 08:37:47;;;;;;;8.75;6.50;;;;;;;25.13;51.65;97381.62;1808713;79;25932;-93
2022/04/24 08:40:16;;;;;;;9.25;6.90;;;;;;;25.14;51.66;97381.78;1808501;79;25439;-92
2022/04/24 08:42:43;;;;;;;8.13;6.57;;;;;;;25.14;51.56;97376.97;1808777;79;27424;-92
2022/04/24 08:45:16;;;;;;;9.18;7.35;;;;;;;25.16;51.46;97382.13;1808540;79;25474;-92
2022/04/24 08:47:44;;;;;;;9.13;6.92;;;;;;;25.17;51.45;97379.48;1808168;79;25466;-93
2022/04/24 08:50:12;;;;;;;8.78;6.55;;;;;;;25.18;51.38;97371.24;1808289;78;25679;-92
2022/04/24 08:52:48;;;;;;;9.35;6.50;;;;;;;25.19;51.34;97370.03;1808521;79;25590;-91
2022/04/24 08:55:12;;;;;;;9.68;6.45;;;;;;;25.18;51.29;97370.63;1807133;79;25833;-91
2022/04/24 08:57:39;;;;;;;10.20;7.00;;;;;;;25.19;51.19;97369.39;1808448;79;25914;-91
2022/04/24 09:00:09;;;;;;;9.28;6.70;;;;;;;25.19;51.12;97360.22;1808573;79;25744;-91
2022/04/24 09:02:36;;;;;;;9.53;6.90;;;;;;;25.19;51.12;97362.39;1808693;79;25775;-91
2022/04/24 09:05:06;;;;;;;9.33;6.95;;;;;;;25.18;51.13;97355.83;1808511;79;25436;-92
2022/04/24 09:07:34;;;;;;;9.15;6.47;;;;;;;25.17;51.12;97355.66;1806719;79;27331;-91
2022/04/24 09:10:07;;;;;;;8.33;6.12;;;;;;;25.17;51.10;97348.66;1807375;79;25698;-91
2022/04/24 09:12:33;;;;;;;9.45;6.60;;;;;;;25.17;51.08;97352.25;1808228;79;25621;-91
2022/04/24 09:15:01;;;;;;;8.90;6.40;;;;;;;25.19;51.04;97349.01;1808676;79;25662;-92
2022/04/24 09:17:33;;;;;;;8.50;6.30;;;;;;;25.19;51.05;97337.16;1808740;79;25711;-92
2022/04/24 09:20:03;;;;;;;8.33;5.95;;;;;;;25.20;51.04;97340.76;1808339;79;27657;-92
2022/04/24 09:22:35;;;;;;;7.97;6.45;;;;;;;25.17;51.04;97339.64;1808449;79;25817;-92
2022/04/24 09:25:01;;;;;;;9.93;6.55;;;;;;;25.17;51.01;97342.45;1807812;79;25810;-91
2022/04/24 09:27:36;;;;;;;8.13;6.17;;;;;;;25.16;51.01;97338.05;1808562;79;25663;-92
2022/04/24 09:30:15;;;;;;;9.30;6.45;;;;;;;25.17;50.98;97335.44;1808510;79;25592;-92
2022/04/24 09:32:52;;;;;;;8.98;6.30;;;;;;;25.17;50.92;97332.63;1808597;79;28037;-91
2022/04/24 09:35:40;;;;;;;7.67;6.05;;;;;;;25.18;50.91;97329.99;1808391;79;25600;-92
2022/04/24 09:38:13;;;;;;;8.93;6.47;;;;;;;25.17;50.86;97331.84;1805852;79;26037;-93
2022/04/24 09:40:45;;;;;;;8.78;6.25;;;;;;;25.17;50.84;97321.42;1808093;79;25163;-94
2022/04/24 09:43:14;;;;;;;10.38;5.92;;;;;;;25.17;50.83;97314.41;1808576;79;25564;-91
2022/04/24 09:45:44;;;;;;;8.43;5.90;;;;;;;25.16;50.81;97314.22;1808606;79;27985;-92
2022/04/24 09:48:16;;;;;;;8.13;6.37;;;;;;;25.16;50.76;97310.66;1808240;79;25553;-92
2022/04/24 09:50:43;;;;;;;7.95;6.00;;;;;;;25.16;50.79;97317.03;1821143;78;25639;-93
2022/04/24 09:53:13;;;;;;;9.90;6.08;;;;;;;25.15;50.78;97309.06;1823080;78;25749;-93
2022/04/24 09:55:41;;;;;;;;;;;;;;;25.18;50.70;97306.77;1825755;78;25632;-93
2022/04/24 09:58:08;;;;;;;8.00;5.83;;;;;;;25.18;50.60;97306.77;1823270;78;27295;-93
2022/04/24 10:00:36;;;;;;;8.20;5.80;;;;;;;25.17;50.64;97299.61;1822992;78;25912;-92
2022/04/24 10:03:03;;;;;;;7.08;6.00;;;;;;;25.19;50.65;97311.16;1819564;78;25658;-92
2022/04/24 10:05:31;;;;;;;8.38;6.40;;;;;;;25.18;50.65;97310.37;1822924;78;25687;-94
2022/04/24 10:08:01;;;;;;;8.80;6.08;;;;;;;25.18;50.62;97306.16;1823226;78;25648;-92
2022/04/24 10:10:28;;;;;;;;;;;;;;;25.17;50.57;97301.80;1825381;78;28406;-92
2022/04/24 10:12:54;;;;;;;7.28;5.97;;;;;;;25.16;50.45;97299.44;1823085;78;25648;-93
2022/04/24 10:15:24;;;;;;;7.15;6.00;;;;;;;25.16;50.54;97307.22;1823234;78;25601;-92
2022/04/24 10:17:58;;;;;;;7.33;6.10;;;;;;;25.16;50.51;97298.81;1823200;78;35192;-91
2022/04/24 10:20:54;;;;;;;6.75;5.95;;;;;;;25.17;50.56;97297.59;1823301;78;25374;-91
2022/04/24 10:23:33;;;;;;;8.65;6.00;;;;;;;25.17;50.62;97297.59;1821903;77;27432;-92
2022/04/24 10:26:00;;;;;;;7.05;5.62;;;;;;;25.16;50.70;97296.00;1821797;78;25402;-91
2022/04/24 10:28:41;;;;;;;8.95;6.05;;;;;;;25.16;50.75;97293.20;1823098;78;25459;-93
2022/04/24 10:31:09;;;;;;;;;;;;;;;25.16;50.81;97287.59;1825788;78;25728;-92
2022/04/24 10:33:38;;;;;;;7.03;5.95;;;;;;;25.17;50.88;97281.39;1822887;78;25422;-94
2022/04/24 10:36:15;;;;;;;7.60;5.97;;;;;;;25.15;50.89;97278.23;1823167;78;27395;-94
2022/04/24 10:38:56;;;;;;;8.55;5.92;;;;;;;25.14;50.94;97268.27;1823182;78;25594;-91
2022/04/24 10:41:25;;;;;;;8.48;5.55;;;;;;;25.15;50.99;97267.81;1822731;78;25426;-91
2022/04/24 10:43:58;;;;;;;7.42;5.97;;;;;;;25.16;51.03;97265.81;1795922;78;25777;-90
2022/04/24 10:46:32;;;;;;;8.00;6.47;;;;;;;25.16;51.14;97265.17;1823577;78;25542;-91
2022/04/24 10:49:10;;;;;;;8.08;5.97;;;;;;;25.18;51.14;97268.93;1823673;78;27464;-91
2022/04/24 10:51:40;;;;;;;6.83;5.90;;;;;;;25.19;51.13;97256.50;1821281;78;25451;-90
2022/04/24 10:54:14;;;;;;;8.23;6.33;;;;;;;25.19;51.26;97250.91;1823967;78;25616;-91
2022/04/24 10:56:49;;;;;;;8.68;6.20;;;;;;;25.19;51.32;97255.11;1823510;78;25827;-90
2022/04/24 10:59:18;;;;;;;7.90;6.28;;;;;;;25.18;51.29;97247.30;1819938;78;25430;-91
2022/04/24 11:01:51;;;;;;;7.53;5.75;;;;;;;25.19;51.36;97248.86;1823784;78;28213;-93
2022/04/24 11:04:20;;;;;;;7.45;6.10;;;;;;;25.19;51.42;97248.09;1823531;78;25672;-92
2022/04/24 11:07:02;;;;;;;8.23;6.10;;;;;;;25.20;51.50;97252.46;1823838;78;25364;-92
2022/04/24 11:09:37;;;;;;;8.15;6.15;;;;;;;25.21;51.53;97248.41;1823465;78;25890;-91
2022/04/24 11:12:07;;;;;;;8.28;6.00;;;;;;;25.22;51.60;97232.39;1823458;78;25628;-92
2022/04/24 11:14:35;;;;;;;7.55;6.33;;;;;;;25.22;51.66;97232.39;1823829;78;27371;-91
2022/04/24 11:17:05;;;;;;;7.83;6.10;;;;;;;25.21;51.70;97238.61;1823553;78;25662;-93
2022/04/24 11:19:38;;;;;;;8.20;5.78;;;;;;;25.23;51.76;97238.16;1823798;78;25586;-93
2022/04/24 11:22:12;;;;;;;7.17;6.00;;;;;;;25.22;51.87;97243.00;1823389;78;25938;-92
2022/04/24 11:24:41;;;;;;;6.85;6.03;;;;;;;25.22;51.89;97243.00;1823477;78;25429;-93
2022/04/24 11:27:14;;;;;;;10.38;6.03;;;;;;;25.22;51.97;97245.80;1823734;78;27445;-92
2022/04/24 11:29:44;;;;;;;8.00;6.53;;;;;;;25.23;52.02;97234.75;1823875;78;25638;-92
2022/04/24 11:32:13;;;;;;;8.43;6.50;;;;;;;25.23;52.19;97235.35;1823260;78;25700;-92
2022/04/24 11:34:39;;;;;;;8.75;6.30;;;;;;;25.21;52.29;97227.39;1823530;78;25501;-91